sensor_id;sensor_type;location;lat;lon;timestamp;P1;durP1;ratioP1;P2;durP2;ratioP2
17524;SDS011;40431;52.198;9.902;2023-08-08T00:02:13;5.20;;;2.80;;
17524;SDS011;40431;52.198;9.902;2023-08-08T00:04:39;4.13;;;2.40;;
17524;SDS011;40431;52.198;9.902;2023-08-08T00:07:06;3.63;;;2.43;;
17524;SDS011;40431;52.198;9.902;2023-08-08T00:09:34;3.50;;;2.53;;
17524;SDS011;40431;52.198;9.902;2023-08-08T00:12:00;3.17;;;2.87;;
17524;SDS011;40431;52.198;9.902;2023-08-08T00:14:27;4.67;;;2.30;;
17524;SDS011;40431;52.198;9.902;2023-08-08T00:16:53;4.83;;;2.83;;
17524;SDS011;40431;52.198;9.902;2023-08-08T00:19:19;3.30;;;2.83;;
17524;SDS011;40431;52.198;9.902;2023-08-08T00:21:46;2.30;;;2.10;;
17524;SDS011;40431;52.198;9.902;2023-08-08T00:24:12;4.30;;;2.80;;
17524;SDS011;40431;52.198;9.902;2023-08-08T00:26:40;5.10;;;3.17;;
17524;SDS011;40431;52.198;9.902;2023-08-08T00:29:07;3.87;;;2.80;;
17524;SDS011;40431;52.198;9.902;2023-08-08T00:31:33;4.27;;;2.77;;
17524;SDS011;40431;52.198;9.902;2023-08-08T00:33:59;3.83;;;3.13;;
17524;SDS011;40431;52.198;9.902;2023-08-08T00:36:26;2.43;;;2.23;;
17524;SDS011;40431;52.198;9.902;2023-08-08T00:38:52;3.83;;;3.13;;
17524;SDS011;40431;52.198;9.902;2023-08-08T00:41:19;4.90;;;2.80;;
17524;SDS011;40431;52.198;9.902;2023-08-08T00:43:46;3.93;;;3.20;;
17524;SDS011;40431;52.198;9.902;2023-08-08T00:46:13;4.03;;;2.97;;
17524;SDS011;40431;52.198;9.902;2023-08-08T00:48:40;4.57;;;2.73;;
17524;SDS011;40431;52.198;9.902;2023-08-08T00:51:06;3.67;;;3.37;;
17524;SDS011;40431;52.198;9.902;2023-08-08T00:53:32;4.60;;;2.80;;
17524;SDS011;40431;52.198;9.902;2023-08-08T00:55:59;3.60;;;2.90;;
17524;SDS011;40431;52.198;9.902;2023-08-08T00:58:25;4.77;;;2.80;;
17524;SDS011;40431;52.198;9.902;2023-08-08T01:00:54;3.40;;;2.50;;
17524;SDS011;40431;52.198;9.902;2023-08-08T01:03:22;4.63;;;3.13;;
17524;SDS011;40431;52.198;9.902;2023-08-08T01:05:51;4.73;;;3.47;;
17524;SDS011;40431;52.198;9.902;2023-08-08T01:08:24;3.50;;;3.20;;
17524;SDS011;40431;52.198;9.902;2023-08-08T01:10:56;3.20;;;2.90;;
17524;SDS011;40431;52.198;9.902;2023-08-08T01:13:23;4.07;;;2.90;;
17524;SDS011;40431;52.198;9.902;2023-08-08T01:15:55;3.07;;;2.77;;
17524;SDS011;40431;52.198;9.902;2023-08-08T01:18:24;2.80;;;2.60;;
17524;SDS011;40431;52.198;9.902;2023-08-08T01:20:52;3.23;;;2.93;;
17524;SDS011;40431;52.198;9.902;2023-08-08T01:23:23;4.27;;;3.63;;
17524;SDS011;40431;52.198;9.902;2023-08-08T01:25:56;5.43;;;2.67;;
17524;SDS011;40431;52.198;9.902;2023-08-08T01:28:23;3.13;;;2.80;;
17524;SDS011;40431;52.198;9.902;2023-08-08T01:30:50;2.73;;;2.50;;
17524;SDS011;40431;52.198;9.902;2023-08-08T01:33:18;3.00;;;2.70;;
17524;SDS011;40431;52.198;9.902;2023-08-08T01:35:46;3.10;;;2.47;;
17524;SDS011;40431;52.198;9.902;2023-08-08T01:38:20;3.47;;;3.17;;
17524;SDS011;40431;52.198;9.902;2023-08-08T01:40:51;3.57;;;3.00;;
17524;SDS011;40431;52.198;9.902;2023-08-08T01:43:21;2.93;;;2.73;;
17524;SDS011;40431;52.198;9.902;2023-08-08T01:45:49;3.00;;;2.80;;
17524;SDS011;40431;52.198;9.902;2023-08-08T01:48:17;3.20;;;2.83;;
17524;SDS011;40431;52.198;9.902;2023-08-08T01:50:43;4.43;;;3.40;;
17524;SDS011;40431;52.198;9.902;2023-08-08T01:53:10;2.83;;;2.63;;
17524;SDS011;40431;52.198;9.902;2023-08-08T01:55:37;3.73;;;3.37;;
17524;SDS011;40431;52.198;9.902;2023-08-08T01:58:04;4.37;;;3.30;;
17524;SDS011;40431;52.198;9.902;2023-08-08T02:00:32;5.33;;;3.50;;
17524;SDS011;40431;52.198;9.902;2023-08-08T02:02:58;4.73;;;3.50;;
17524;SDS011;40431;52.198;9.902;2023-08-08T02:05:24;4.43;;;3.67;;
17524;SDS011;40431;52.198;9.902;2023-08-08T02:07:51;4.87;;;3.70;;
17524;SDS011;40431;52.198;9.902;2023-08-08T02:10:17;4.77;;;3.63;;
17524;SDS011;40431;52.198;9.902;2023-08-08T02:12:43;4.83;;;4.13;;
17524;SDS011;40431;52.198;9.902;2023-08-08T02:15:10;4.00;;;3.63;;
17524;SDS011;40431;52.198;9.902;2023-08-08T02:17:38;3.43;;;3.20;;
17524;SDS011;40431;52.198;9.902;2023-08-08T02:20:05;3.90;;;3.60;;
17524;SDS011;40431;52.198;9.902;2023-08-08T02:22:32;3.53;;;3.23;;
17524;SDS011;40431;52.198;9.902;2023-08-08T02:24:59;3.53;;;3.20;;
17524;SDS011;40431;52.198;9.902;2023-08-08T02:27:25;4.17;;;3.27;;
17524;SDS011;40431;52.198;9.902;2023-08-08T02:29:52;4.23;;;3.83;;
17524;SDS011;40431;52.198;9.902;2023-08-08T02:32:18;4.13;;;3.73;;
17524;SDS011;40431;52.198;9.902;2023-08-08T02:34:47;6.00;;;4.13;;
17524;SDS011;40431;52.198;9.902;2023-08-08T02:37:14;4.03;;;3.63;;
17524;SDS011;40431;52.198;9.902;2023-08-08T02:39:40;4.83;;;4.37;;
17524;SDS011;40431;52.198;9.902;2023-08-08T02:42:07;6.47;;;3.83;;
17524;SDS011;40431;52.198;9.902;2023-08-08T02:44:33;4.00;;;3.60;;
17524;SDS011;40431;52.198;9.902;2023-08-08T02:47:00;4.80;;;4.27;;
17524;SDS011;40431;52.198;9.902;2023-08-08T02:49:26;3.53;;;3.23;;
17524;SDS011;40431;52.198;9.902;2023-08-08T02:51:55;4.03;;;3.73;;
17524;SDS011;40431;52.198;9.902;2023-08-08T02:54:21;4.33;;;3.27;;
17524;SDS011;40431;52.198;9.902;2023-08-08T02:56:47;5.10;;;3.60;;
17524;SDS011;40431;52.198;9.902;2023-08-08T02:59:14;3.63;;;3.17;;
17524;SDS011;40431;52.198;9.902;2023-08-08T03:01:40;4.53;;;4.13;;
17524;SDS011;40431;52.198;9.902;2023-08-08T03:04:07;5.37;;;3.40;;
17524;SDS011;40431;52.198;9.902;2023-08-08T03:06:33;5.10;;;4.00;;
17524;SDS011;40431;52.198;9.902;2023-08-08T03:09:01;4.60;;;4.20;;
17524;SDS011;40431;52.198;9.902;2023-08-08T03:11:27;5.43;;;3.70;;
17524;SDS011;40431;52.198;9.902;2023-08-08T03:13:53;5.20;;;4.10;;
17524;SDS011;40431;52.198;9.902;2023-08-08T03:16:20;3.80;;;3.47;;
17524;SDS011;40431;52.198;9.902;2023-08-08T03:18:46;3.97;;;3.10;;
17524;SDS011;40431;52.198;9.902;2023-08-08T03:21:12;4.73;;;4.00;;
17524;SDS011;40431;52.198;9.902;2023-08-08T03:23:39;3.90;;;3.60;;
17524;SDS011;40431;52.198;9.902;2023-08-08T03:26:07;6.10;;;4.20;;
17524;SDS011;40431;52.198;9.902;2023-08-08T03:28:33;10.47;;;3.93;;
17524;SDS011;40431;52.198;9.902;2023-08-08T03:30:59;4.17;;;3.87;;
17524;SDS011;40431;52.198;9.902;2023-08-08T03:33:27;3.90;;;3.57;;
17524;SDS011;40431;52.198;9.902;2023-08-08T03:35:53;3.70;;;3.30;;
17524;SDS011;40431;52.198;9.902;2023-08-08T03:38:20;4.17;;;3.60;;
17524;SDS011;40431;52.198;9.902;2023-08-08T03:40:46;3.63;;;3.33;;
17524;SDS011;40431;52.198;9.902;2023-08-08T03:43:14;4.37;;;3.17;;
17524;SDS011;40431;52.198;9.902;2023-08-08T03:45:40;5.23;;;3.83;;
17524;SDS011;40431;52.198;9.902;2023-08-08T03:48:06;4.70;;;3.03;;
17524;SDS011;40431;52.198;9.902;2023-08-08T03:50:33;4.33;;;3.13;;
17524;SDS011;40431;52.198;9.902;2023-08-08T03:52:59;3.90;;;3.33;;
17524;SDS011;40431;52.198;9.902;2023-08-08T03:55:25;4.20;;;3.43;;
17524;SDS011;40431;52.198;9.902;2023-08-08T03:57:52;4.37;;;3.80;;
17524;SDS011;40431;52.198;9.902;2023-08-08T04:00:20;3.30;;;2.93;;
17524;SDS011;40431;52.198;9.902;2023-08-08T04:02:46;3.73;;;3.03;;
17524;SDS011;40431;52.198;9.902;2023-08-08T04:05:13;3.90;;;3.47;;
17524;SDS011;40431;52.198;9.902;2023-08-08T04:07:38;3.43;;;3.13;;
17524;SDS011;40431;52.198;9.902;2023-08-08T04:10:05;3.50;;;3.20;;
17524;SDS011;40431;52.198;9.902;2023-08-08T04:12:32;3.53;;;3.23;;
17524;SDS011;40431;52.198;9.902;2023-08-08T04:14:58;4.43;;;2.80;;
17524;SDS011;40431;52.198;9.902;2023-08-08T04:17:26;3.07;;;2.80;;
17524;SDS011;40431;52.198;9.902;2023-08-08T04:19:52;3.57;;;3.27;;
17524;SDS011;40431;52.198;9.902;2023-08-08T04:22:19;3.43;;;3.13;;
17524;SDS011;40431;52.198;9.902;2023-08-08T04:24:45;3.80;;;3.50;;
17524;SDS011;40431;52.198;9.902;2023-08-08T04:27:12;3.90;;;2.93;;
17524;SDS011;40431;52.198;9.902;2023-08-08T04:29:38;3.00;;;2.70;;
17524;SDS011;40431;52.198;9.902;2023-08-08T04:32:05;3.03;;;2.73;;
17524;SDS011;40431;52.198;9.902;2023-08-08T04:34:33;4.23;;;3.00;;
17524;SDS011;40431;52.198;9.902;2023-08-08T04:36:59;3.10;;;2.90;;
17524;SDS011;40431;52.198;9.902;2023-08-08T04:39:25;2.80;;;2.60;;
17524;SDS011;40431;52.198;9.902;2023-08-08T04:41:52;3.87;;;3.03;;
17524;SDS011;40431;52.198;9.902;2023-08-08T04:44:18;3.53;;;2.53;;
17524;SDS011;40431;52.198;9.902;2023-08-08T04:46:44;2.93;;;2.73;;
17524;SDS011;40431;52.198;9.902;2023-08-08T04:49:11;3.23;;;2.40;;
17524;SDS011;40431;52.198;9.902;2023-08-08T04:51:39;4.43;;;2.57;;
17524;SDS011;40431;52.198;9.902;2023-08-08T04:54:05;2.83;;;2.60;;
17524;SDS011;40431;52.198;9.902;2023-08-08T04:56:31;2.83;;;2.40;;
17524;SDS011;40431;52.198;9.902;2023-08-08T04:58:58;3.03;;;2.73;;
17524;SDS011;40431;52.198;9.902;2023-08-08T05:01:24;2.70;;;2.50;;
17524;SDS011;40431;52.198;9.902;2023-08-08T05:03:50;6.83;;;2.70;;
17524;SDS011;40431;52.198;9.902;2023-08-08T05:06:17;7.40;;;3.50;;
17524;SDS011;40431;52.198;9.902;2023-08-08T05:08:44;2.80;;;2.60;;
17524;SDS011;40431;52.198;9.902;2023-08-08T05:11:11;3.87;;;2.97;;
17524;SDS011;40431;52.198;9.902;2023-08-08T05:13:37;3.33;;;3.10;;
17524;SDS011;40431;52.198;9.902;2023-08-08T05:16:04;5.43;;;3.70;;
17524;SDS011;40431;52.198;9.902;2023-08-08T05:18:31;3.70;;;3.40;;
17524;SDS011;40431;52.198;9.902;2023-08-08T05:20:57;3.87;;;3.23;;
17524;SDS011;40431;52.198;9.902;2023-08-08T05:23:24;4.50;;;4.10;;
17524;SDS011;40431;52.198;9.902;2023-08-08T05:25:51;6.33;;;3.77;;
17524;SDS011;40431;52.198;9.902;2023-08-08T05:28:18;4.60;;;4.20;;
17524;SDS011;40431;52.198;9.902;2023-08-08T05:30:45;4.67;;;4.03;;
17524;SDS011;40431;52.198;9.902;2023-08-08T05:33:12;7.10;;;4.50;;
17524;SDS011;40431;52.198;9.902;2023-08-08T05:35:39;4.80;;;4.33;;
17524;SDS011;40431;52.198;9.902;2023-08-08T05:38:05;4.30;;;4.00;;
17524;SDS011;40431;52.198;9.902;2023-08-08T05:40:33;4.97;;;4.07;;
17524;SDS011;40431;52.198;9.902;2023-08-08T05:43:01;5.00;;;4.47;;
17524;SDS011;40431;52.198;9.902;2023-08-08T05:45:28;5.57;;;5.07;;
17524;SDS011;40431;52.198;9.902;2023-08-08T05:47:54;5.90;;;4.53;;
17524;SDS011;40431;52.198;9.902;2023-08-08T05:50:21;5.90;;;5.27;;
17524;SDS011;40431;52.198;9.902;2023-08-08T05:52:48;5.87;;;5.00;;
17524;SDS011;40431;52.198;9.902;2023-08-08T05:55:14;5.93;;;5.43;;
17524;SDS011;40431;52.198;9.902;2023-08-08T05:57:40;7.27;;;5.37;;
17524;SDS011;40431;52.198;9.902;2023-08-08T06:00:09;5.77;;;5.23;;
17524;SDS011;40431;52.198;9.902;2023-08-08T06:02:36;6.50;;;5.63;;
17524;SDS011;40431;52.198;9.902;2023-08-08T06:05:03;5.60;;;5.20;;
17524;SDS011;40431;52.198;9.902;2023-08-08T06:07:30;8.07;;;5.47;;
17524;SDS011;40431;52.198;9.902;2023-08-08T06:09:56;8.43;;;5.00;;
17524;SDS011;40431;52.198;9.902;2023-08-08T06:12:23;5.67;;;4.97;;
17524;SDS011;40431;52.198;9.902;2023-08-08T06:14:49;5.17;;;4.73;;
17524;SDS011;40431;52.198;9.902;2023-08-08T06:17:17;5.33;;;4.83;;
17524;SDS011;40431;52.198;9.902;2023-08-08T06:19:43;4.77;;;4.37;;
17524;SDS011;40431;52.198;9.902;2023-08-08T06:22:10;6.37;;;4.43;;
17524;SDS011;40431;52.198;9.902;2023-08-08T06:24:36;5.00;;;4.50;;
17524;SDS011;40431;52.198;9.902;2023-08-08T06:27:04;5.10;;;4.60;;
17524;SDS011;40431;52.198;9.902;2023-08-08T06:29:30;5.33;;;4.80;;
17524;SDS011;40431;52.198;9.902;2023-08-08T06:31:57;5.77;;;5.20;;
17524;SDS011;40431;52.198;9.902;2023-08-08T06:34:24;5.33;;;4.77;;
17524;SDS011;40431;52.198;9.902;2023-08-08T06:36:51;5.13;;;4.70;;
17524;SDS011;40431;52.198;9.902;2023-08-08T06:39:17;5.40;;;4.90;;
17524;SDS011;40431;52.198;9.902;2023-08-08T06:41:46;5.10;;;4.70;;
17524;SDS011;40431;52.198;9.902;2023-08-08T06:44:12;5.57;;;5.10;;
17524;SDS011;40431;52.198;9.902;2023-08-08T06:46:38;5.60;;;5.10;;
17524;SDS011;40431;52.198;9.902;2023-08-08T06:49:06;6.10;;;5.50;;
17524;SDS011;40431;52.198;9.902;2023-08-08T06:51:35;5.60;;;5.20;;
17524;SDS011;40431;52.198;9.902;2023-08-08T06:54:01;6.30;;;5.70;;
17524;SDS011;40431;52.198;9.902;2023-08-08T06:56:28;5.97;;;5.47;;
17524;SDS011;40431;52.198;9.902;2023-08-08T06:58:54;6.67;;;6.07;;
17524;SDS011;40431;52.198;9.902;2023-08-08T07:01:21;6.97;;;6.37;;
17524;SDS011;40431;52.198;9.902;2023-08-08T07:03:47;7.33;;;6.73;;
17524;SDS011;40431;52.198;9.902;2023-08-08T07:06:14;6.27;;;5.83;;
17524;SDS011;40431;52.198;9.902;2023-08-08T07:08:43;6.60;;;6.17;;
17524;SDS011;40431;52.198;9.902;2023-08-08T07:11:10;6.83;;;6.03;;
17524;SDS011;40431;52.198;9.902;2023-08-08T07:13:36;6.37;;;5.87;;
17524;SDS011;40431;52.198;9.902;2023-08-08T07:16:03;6.60;;;6.10;;
17524;SDS011;40431;52.198;9.902;2023-08-08T07:18:29;6.40;;;5.90;;
17524;SDS011;40431;52.198;9.902;2023-08-08T07:20:56;7.20;;;6.70;;
17524;SDS011;40431;52.198;9.902;2023-08-08T07:23:22;8.03;;;7.23;;
17524;SDS011;40431;52.198;9.902;2023-08-08T07:25:50;7.13;;;6.57;;
17524;SDS011;40431;52.198;9.902;2023-08-08T07:28:16;5.93;;;5.43;;
17524;SDS011;40431;52.198;9.902;2023-08-08T07:30:43;6.47;;;5.87;;
17524;SDS011;40431;52.198;9.902;2023-08-08T07:33:09;6.23;;;5.73;;
17524;SDS011;40431;52.198;9.902;2023-08-08T07:35:35;6.53;;;6.03;;
17524;SDS011;40431;52.198;9.902;2023-08-08T07:38:02;6.40;;;5.90;;
17524;SDS011;40431;52.198;9.902;2023-08-08T07:40:29;6.60;;;5.50;;
17524;SDS011;40431;52.198;9.902;2023-08-08T07:42:56;5.40;;;5.00;;
17524;SDS011;40431;52.198;9.902;2023-08-08T07:45:23;5.53;;;5.13;;
17524;SDS011;40431;52.198;9.902;2023-08-08T07:47:49;5.87;;;5.37;;
17524;SDS011;40431;52.198;9.902;2023-08-08T07:50:15;5.83;;;5.40;;
17524;SDS011;40431;52.198;9.902;2023-08-08T07:52:42;5.70;;;5.27;;
17524;SDS011;40431;52.198;9.902;2023-08-08T07:55:08;5.80;;;5.30;;
17524;SDS011;40431;52.198;9.902;2023-08-08T07:57:35;5.07;;;4.77;;
17524;SDS011;40431;52.198;9.902;2023-08-08T08:00:02;4.80;;;4.50;;
17524;SDS011;40431;52.198;9.902;2023-08-08T08:02:34;5.00;;;4.60;;
17524;SDS011;40431;52.198;9.902;2023-08-08T08:05:01;5.47;;;5.00;;
17524;SDS011;40431;52.198;9.902;2023-08-08T08:07:30;4.67;;;4.37;;
17524;SDS011;40431;52.198;9.902;2023-08-08T08:09:56;4.60;;;4.20;;
17524;SDS011;40431;52.198;9.902;2023-08-08T08:12:23;3.90;;;3.40;;
17524;SDS011;40431;52.198;9.902;2023-08-08T08:14:49;3.80;;;3.50;;
17524;SDS011;40431;52.198;9.902;2023-08-08T08:17:17;3.50;;;3.17;;
17524;SDS011;40431;52.198;9.902;2023-08-08T08:19:43;4.80;;;3.53;;
17524;SDS011;40431;52.198;9.902;2023-08-08T08:22:10;5.20;;;3.73;;
17524;SDS011;40431;52.198;9.902;2023-08-08T08:24:36;3.90;;;3.00;;
17524;SDS011;40431;52.198;9.902;2023-08-08T08:27:03;5.50;;;3.27;;
17524;SDS011;40431;52.198;9.902;2023-08-08T08:29:29;3.33;;;3.10;;
17524;SDS011;40431;52.198;9.902;2023-08-08T08:31:58;3.93;;;2.70;;
17524;SDS011;40431;52.198;9.902;2023-08-08T08:34:25;3.20;;;2.90;;
17524;SDS011;40431;52.198;9.902;2023-08-08T08:36:52;4.33;;;3.93;;
17524;SDS011;40431;52.198;9.902;2023-08-08T08:39:18;5.53;;;4.37;;
17524;SDS011;40431;52.198;9.902;2023-08-08T08:41:44;10.37;;;3.60;;
17524;SDS011;40431;52.198;9.902;2023-08-08T08:44:14;6.00;;;5.40;;
17524;SDS011;40431;52.198;9.902;2023-08-08T08:46:42;6.10;;;5.50;;
17524;SDS011;40431;52.198;9.902;2023-08-08T08:49:13;4.77;;;4.03;;
17524;SDS011;40431;52.198;9.902;2023-08-08T08:51:41;5.70;;;4.33;;
17524;SDS011;40431;52.198;9.902;2023-08-08T08:54:08;5.23;;;4.73;;
17524;SDS011;40431;52.198;9.902;2023-08-08T08:56:36;6.17;;;4.77;;
17524;SDS011;40431;52.198;9.902;2023-08-08T08:59:02;4.87;;;4.57;;
17524;SDS011;40431;52.198;9.902;2023-08-08T09:01:29;6.47;;;5.03;;
17524;SDS011;40431;52.198;9.902;2023-08-08T09:03:56;5.00;;;4.40;;
17524;SDS011;40431;52.198;9.902;2023-08-08T09:06:23;5.13;;;3.90;;
17524;SDS011;40431;52.198;9.902;2023-08-08T09:08:52;4.90;;;4.50;;
17524;SDS011;40431;52.198;9.902;2023-08-08T09:11:19;5.20;;;4.70;;
17524;SDS011;40431;52.198;9.902;2023-08-08T09:13:45;5.17;;;4.77;;
17524;SDS011;40431;52.198;9.902;2023-08-08T09:16:12;4.70;;;4.30;;
17524;SDS011;40431;52.198;9.902;2023-08-08T09:18:39;7.43;;;5.00;;
17524;SDS011;40431;52.198;9.902;2023-08-08T09:21:07;5.87;;;4.80;;
17524;SDS011;40431;52.198;9.902;2023-08-08T09:23:35;5.57;;;5.13;;
17524;SDS011;40431;52.198;9.902;2023-08-08T09:26:04;8.20;;;5.73;;
17524;SDS011;40431;52.198;9.902;2023-08-08T09:28:31;6.03;;;5.53;;
17524;SDS011;40431;52.198;9.902;2023-08-08T09:30:57;5.50;;;5.10;;
17524;SDS011;40431;52.198;9.902;2023-08-08T09:33:27;7.10;;;5.33;;
17524;SDS011;40431;52.198;9.902;2023-08-08T09:35:54;7.03;;;6.43;;
17524;SDS011;40431;52.198;9.902;2023-08-08T09:38:21;7.43;;;6.83;;
17524;SDS011;40431;52.198;9.902;2023-08-08T09:40:47;6.77;;;6.17;;
17524;SDS011;40431;52.198;9.902;2023-08-08T09:43:15;6.57;;;5.97;;
17524;SDS011;40431;52.198;9.902;2023-08-08T09:45:42;6.17;;;5.57;;
17524;SDS011;40431;52.198;9.902;2023-08-08T09:48:09;6.67;;;6.00;;
17524;SDS011;40431;52.198;9.902;2023-08-08T09:50:36;6.13;;;5.70;;
17524;SDS011;40431;52.198;9.902;2023-08-08T09:53:03;8.70;;;8.00;;
17524;SDS011;40431;52.198;9.902;2023-08-08T09:55:30;7.90;;;7.30;;
17524;SDS011;40431;52.198;9.902;2023-08-08T09:57:58;7.43;;;6.83;;
17524;SDS011;40431;52.198;9.902;2023-08-08T10:00:26;8.07;;;7.27;;
17524;SDS011;40431;52.198;9.902;2023-08-08T10:02:55;8.20;;;7.50;;
17524;SDS011;40431;52.198;9.902;2023-08-08T10:05:25;7.47;;;6.87;;
17524;SDS011;40431;52.198;9.902;2023-08-08T10:07:52;8.20;;;7.43;;
17524;SDS011;40431;52.198;9.902;2023-08-08T10:10:20;7.80;;;7.10;;
17524;SDS011;40431;52.198;9.902;2023-08-08T10:12:47;7.17;;;6.57;;
17524;SDS011;40431;52.198;9.902;2023-08-08T10:15:14;6.67;;;6.00;;
17524;SDS011;40431;52.198;9.902;2023-08-08T10:17:42;7.37;;;6.80;;
17524;SDS011;40431;52.198;9.902;2023-08-08T10:20:09;6.27;;;5.47;;
17524;SDS011;40431;52.198;9.902;2023-08-08T10:22:37;7.27;;;6.67;;
17524;SDS011;40431;52.198;9.902;2023-08-08T10:25:07;7.93;;;7.27;;
17524;SDS011;40431;52.198;9.902;2023-08-08T10:27:35;6.90;;;6.40;;
17524;SDS011;40431;52.198;9.902;2023-08-08T10:30:03;7.23;;;6.63;;
17524;SDS011;40431;52.198;9.902;2023-08-08T10:32:37;7.20;;;5.80;;
17524;SDS011;40431;52.198;9.902;2023-08-08T10:35:07;7.37;;;5.80;;
17524;SDS011;40431;52.198;9.902;2023-08-08T10:37:34;7.03;;;6.43;;
17524;SDS011;40431;52.198;9.902;2023-08-08T10:40:02;6.77;;;6.17;;
17524;SDS011;40431;52.198;9.902;2023-08-08T10:42:32;6.20;;;5.70;;
17524;SDS011;40431;52.198;9.902;2023-08-08T10:44:59;5.97;;;5.57;;
17524;SDS011;40431;52.198;9.902;2023-08-08T10:47:30;5.93;;;5.37;;
17524;SDS011;40431;52.198;9.902;2023-08-08T10:50:02;6.20;;;5.70;;
17524;SDS011;40431;52.198;9.902;2023-08-08T10:52:32;6.53;;;5.93;;
17524;SDS011;40431;52.198;9.902;2023-08-08T10:55:00;6.43;;;5.87;;
17524;SDS011;40431;52.198;9.902;2023-08-08T10:57:27;4.97;;;4.50;;
17524;SDS011;40431;52.198;9.902;2023-08-08T10:59:54;4.70;;;4.30;;
17524;SDS011;40431;52.198;9.902;2023-08-08T11:02:20;4.70;;;4.27;;
17524;SDS011;40431;52.198;9.902;2023-08-08T11:04:47;4.23;;;3.83;;
17524;SDS011;40431;52.198;9.902;2023-08-08T11:07:14;5.10;;;3.60;;
17524;SDS011;40431;52.198;9.902;2023-08-08T11:09:43;4.13;;;3.73;;
17524;SDS011;40431;52.198;9.902;2023-08-08T11:12:13;3.80;;;3.50;;
17524;SDS011;40431;52.198;9.902;2023-08-08T11:14:39;3.80;;;3.40;;
17524;SDS011;40431;52.198;9.902;2023-08-08T11:17:06;4.03;;;3.63;;
17524;SDS011;40431;52.198;9.902;2023-08-08T11:19:37;7.17;;;3.20;;
17524;SDS011;40431;52.198;9.902;2023-08-08T11:22:08;3.17;;;2.93;;
17524;SDS011;40431;52.198;9.902;2023-08-08T11:24:35;2.70;;;2.50;;
17524;SDS011;40431;52.198;9.902;2023-08-08T11:27:03;5.77;;;3.30;;
17524;SDS011;40431;52.198;9.902;2023-08-08T11:29:29;3.13;;;2.50;;
17524;SDS011;40431;52.198;9.902;2023-08-08T11:31:56;4.33;;;2.10;;
17524;SDS011;40431;52.198;9.902;2023-08-08T11:34:23;2.57;;;2.23;;
17524;SDS011;40431;52.198;9.902;2023-08-08T11:36:49;4.57;;;2.40;;
17524;SDS011;40431;52.198;9.902;2023-08-08T11:39:16;4.23;;;2.03;;
17524;SDS011;40431;52.198;9.902;2023-08-08T11:41:43;2.73;;;2.20;;
17524;SDS011;40431;52.198;9.902;2023-08-08T11:44:11;3.47;;;1.90;;
17524;SDS011;40431;52.198;9.902;2023-08-08T11:46:43;2.30;;;2.10;;
17524;SDS011;40431;52.198;9.902;2023-08-08T11:49:10;3.27;;;2.57;;
17524;SDS011;40431;52.198;9.902;2023-08-08T11:51:39;2.97;;;2.37;;
17524;SDS011;40431;52.198;9.902;2023-08-08T11:54:05;2.83;;;2.53;;
17524;SDS011;40431;52.198;9.902;2023-08-08T11:56:32;2.70;;;2.50;;
17524;SDS011;40431;52.198;9.902;2023-08-08T11:58:59;3.27;;;2.33;;
17524;SDS011;40431;52.198;9.902;2023-08-08T12:01:28;2.63;;;2.27;;
17524;SDS011;40431;52.198;9.902;2023-08-08T12:03:57;3.33;;;2.40;;
17524;SDS011;40431;52.198;9.902;2023-08-08T12:06:27;3.20;;;2.53;;
17524;SDS011;40431;52.198;9.902;2023-08-08T12:08:54;3.13;;;1.73;;
17524;SDS011;40431;52.198;9.902;2023-08-08T12:11:21;3.43;;;1.90;;
17524;SDS011;40431;52.198;9.902;2023-08-08T12:13:47;4.07;;;2.30;;
17524;SDS011;40431;52.198;9.902;2023-08-08T12:16:14;3.50;;;1.70;;
17524;SDS011;40431;52.198;9.902;2023-08-08T12:18:42;2.30;;;1.90;;
17524;SDS011;40431;52.198;9.902;2023-08-08T12:21:09;2.20;;;1.73;;
17524;SDS011;40431;52.198;9.902;2023-08-08T12:23:36;2.27;;;1.50;;
17524;SDS011;40431;52.198;9.902;2023-08-08T12:26:03;1.67;;;1.47;;
17524;SDS011;40431;52.198;9.902;2023-08-08T12:28:31;1.77;;;1.57;;
17524;SDS011;40431;52.198;9.902;2023-08-08T12:30:58;4.47;;;1.60;;
17524;SDS011;40431;52.198;9.902;2023-08-08T12:33:24;1.97;;;1.60;;
17524;SDS011;40431;52.198;9.902;2023-08-08T12:35:52;2.10;;;1.53;;
17524;SDS011;40431;52.198;9.902;2023-08-08T12:38:18;4.93;;;1.87;;
17524;SDS011;40431;52.198;9.902;2023-08-08T12:40:45;2.90;;;1.90;;
17524;SDS011;40431;52.198;9.902;2023-08-08T12:43:11;2.63;;;1.60;;
17524;SDS011;40431;52.198;9.902;2023-08-08T12:45:39;2.30;;;1.80;;
17524;SDS011;40431;52.198;9.902;2023-08-08T12:48:06;1.60;;;1.50;;
17524;SDS011;40431;52.198;9.902;2023-08-08T12:50:32;2.17;;;1.60;;
17524;SDS011;40431;52.198;9.902;2023-08-08T12:53:00;1.53;;;1.40;;
17524;SDS011;40431;52.198;9.902;2023-08-08T12:55:26;3.57;;;1.50;;
17524;SDS011;40431;52.198;9.902;2023-08-08T12:57:53;4.10;;;1.43;;
17524;SDS011;40431;52.198;9.902;2023-08-08T13:00:19;2.57;;;1.40;;
17524;SDS011;40431;52.198;9.902;2023-08-08T13:02:46;2.03;;;1.37;;
17524;SDS011;40431;52.198;9.902;2023-08-08T13:05:12;2.27;;;1.50;;
17524;SDS011;40431;52.198;9.902;2023-08-08T13:07:38;2.20;;;1.50;;
17524;SDS011;40431;52.198;9.902;2023-08-08T13:10:07;2.50;;;1.33;;
17524;SDS011;40431;52.198;9.902;2023-08-08T13:12:33;1.57;;;1.30;;
17524;SDS011;40431;52.198;9.902;2023-08-08T13:15:00;2.67;;;1.63;;
17524;SDS011;40431;52.198;9.902;2023-08-08T13:17:27;4.57;;;2.00;;
17524;SDS011;40431;52.198;9.902;2023-08-08T13:19:53;3.53;;;2.03;;
17524;SDS011;40431;52.198;9.902;2023-08-08T13:22:19;2.40;;;1.70;;
17524;SDS011;40431;52.198;9.902;2023-08-08T13:24:46;1.70;;;1.40;;
17524;SDS011;40431;52.198;9.902;2023-08-08T13:27:13;1.63;;;1.40;;
17524;SDS011;40431;52.198;9.902;2023-08-08T13:29:40;2.20;;;1.50;;
17524;SDS011;40431;52.198;9.902;2023-08-08T13:32:06;1.73;;;1.63;;
17524;SDS011;40431;52.198;9.902;2023-08-08T13:34:33;1.47;;;1.37;;
17524;SDS011;40431;52.198;9.902;2023-08-08T13:36:59;1.40;;;1.30;;
17524;SDS011;40431;52.198;9.902;2023-08-08T13:39:25;2.40;;;1.53;;
17524;SDS011;40431;52.198;9.902;2023-08-08T13:41:52;6.20;;;1.40;;
17524;SDS011;40431;52.198;9.902;2023-08-08T13:44:19;2.90;;;1.40;;
17524;SDS011;40431;52.198;9.902;2023-08-08T13:46:46;1.63;;;1.40;;
17524;SDS011;40431;52.198;9.902;2023-08-08T13:49:12;2.30;;;1.20;;
17524;SDS011;40431;52.198;9.902;2023-08-08T13:51:38;2.17;;;1.27;;
17524;SDS011;40431;52.198;9.902;2023-08-08T13:54:05;2.00;;;1.20;;
17524;SDS011;40431;52.198;9.902;2023-08-08T13:56:32;1.90;;;1.20;;
17524;SDS011;40431;52.198;9.902;2023-08-08T13:58:58;1.33;;;1.20;;
17524;SDS011;40431;52.198;9.902;2023-08-08T14:01:26;1.60;;;1.30;;
17524;SDS011;40431;52.198;9.902;2023-08-08T14:03:52;1.47;;;1.30;;
17524;SDS011;40431;52.198;9.902;2023-08-08T14:06:18;0.97;;;0.97;;
17524;SDS011;40431;52.198;9.902;2023-08-08T14:08:45;2.60;;;1.20;;
17524;SDS011;40431;52.198;9.902;2023-08-08T14:11:11;1.37;;;1.07;;
17524;SDS011;40431;52.198;9.902;2023-08-08T14:13:38;1.10;;;1.10;;
17524;SDS011;40431;52.198;9.902;2023-08-08T14:16:05;1.20;;;1.00;;
17524;SDS011;40431;52.198;9.902;2023-08-08T14:18:33;2.90;;;1.20;;
17524;SDS011;40431;52.198;9.902;2023-08-08T14:20:59;4.53;;;1.03;;
17524;SDS011;40431;52.198;9.902;2023-08-08T14:23:28;3.53;;;1.20;;
17524;SDS011;40431;52.198;9.902;2023-08-08T14:25:54;2.60;;;1.00;;
17524;SDS011;40431;52.198;9.902;2023-08-08T14:28:20;1.50;;;1.10;;
17524;SDS011;40431;52.198;9.902;2023-08-08T14:30:47;1.83;;;0.90;;
17524;SDS011;40431;52.198;9.902;2023-08-08T14:35:42;1.00;;;1.00;;
17524;SDS011;40431;52.198;9.902;2023-08-08T14:38:08;2.17;;;1.03;;
17524;SDS011;40431;52.198;9.902;2023-08-08T14:40:35;4.87;;;1.20;;
17524;SDS011;40431;52.198;9.902;2023-08-08T14:43:01;1.20;;;1.10;;
17524;SDS011;40431;52.198;9.902;2023-08-08T14:45:28;2.30;;;0.93;;
17524;SDS011;40431;52.198;9.902;2023-08-08T14:47:54;0.90;;;0.90;;
17524;SDS011;40431;52.198;9.902;2023-08-08T14:50:21;1.60;;;1.00;;